Time;durP1;ratioP1;P1;durP2;ratioP2;P2;SDS_P1;SDS_P2;PMS_P1;PMS_P2;Temp;Humidity;BMP_temperature;BMP_pressure;BME280_temperature;BME280_humidity;BME280_pressure;Samples;Min_cycle;Max_cycle;Signal;HPM_P1;HPM_P2
2021/04/05 00:01:05;;;;;;;;;;;20.20;36.90;;;;;;463017;257;1054;-44
2021/04/05 00:03:06;;;;;;;;;;;20.20;36.90;;;;;;463201;257;1043;-44
2021/04/05 00:05:07;;;;;;;;;;;20.20;36.80;;;;;;462927;257;1044;-45
2021/04/05 00:07:10;;;;;;;;;;;20.30;36.80;;;;;;462949;257;1071;-45
2021/04/05 00:09:10;;;;;;;;;;;20.30;36.80;;;;;;462870;257;2174;-45
2021/04/05 00:11:11;;;;;;;;;;;20.30;36.70;;;;;;463124;257;1087;-44
2021/04/05 00:13:12;;;;;;;;;;;20.30;36.70;;;;;;463067;257;2195;-45
2021/04/05 00:15:14;;;;;;;;;;;20.30;36.70;;;;;;462868;257;1099;-45
2021/04/05 00:17:16;;;;;;;;;;;20.30;36.70;;;;;;462939;257;1241;-44
2021/04/05 00:19:16;;;;;;;;;;;20.40;36.60;;;;;;462827;258;1639;-44
2021/04/05 00:21:20;;;;;;;;;;;20.40;36.60;;;;;;462795;258;1067;-45
2021/04/05 00:23:19;;;;;;;;;;;20.40;36.60;;;;;;463147;257;2473;-45
2021/04/05 00:25:20;;;;;;;;;;;20.40;36.50;;;;;;462930;257;1208;-45
2021/04/05 00:27:21;;;;;;;;;;;20.40;36.50;;;;;;462907;257;1069;-44
2021/04/05 00:29:23;;;;;;;;;;;20.40;36.50;;;;;;462898;257;1242;-45
2021/04/05 00:31:24;;;;;;;;;;;20.40;36.50;;;;;;462920;257;2203;-45
2021/04/05 00:33:25;;;;;;;;;;;20.50;36.50;;;;;;462938;257;1131;-45
2021/04/05 00:35:26;;;;;;;;;;;20.50;36.40;;;;;;462968;257;1051;-44
2021/04/05 00:37:28;;;;;;;;;;;20.50;36.40;;;;;;462850;257;1080;-45
2021/04/05 00:39:29;;;;;;;;;;;20.50;36.40;;;;;;462906;257;1172;-45
2021/04/05 00:41:30;;;;;;;;;;;20.50;36.40;;;;;;462887;257;1184;-44
2021/04/05 00:43:32;;;;;;;;;;;20.50;36.40;;;;;;462942;257;1060;-45
2021/04/05 00:45:34;;;;;;;;;;;20.50;36.40;;;;;;463095;257;1086;-45
2021/04/05 00:47:34;;;;;;;;;;;20.60;36.30;;;;;;462999;257;1178;-44
2021/04/05 00:49:36;;;;;;;;;;;20.60;36.40;;;;;;463143;257;1158;-45
2021/04/05 00:51:37;;;;;;;;;;;20.50;36.40;;;;;;463028;257;2211;-45
2021/04/05 00:53:38;;;;;;;;;;;20.60;36.30;;;;;;463077;257;1044;-45
2021/04/05 00:55:40;;;;;;;;;;;20.60;36.30;;;;;;462924;257;1271;-45
2021/04/05 00:57:41;;;;;;;;;;;20.60;36.30;;;;;;462926;257;1146;-45
2021/04/05 00:59:42;;;;;;;;;;;20.60;36.20;;;;;;463101;257;1089;-45
2021/04/05 01:01:43;;;;;;;;;;;20.60;36.30;;;;;;462848;257;1108;-44
2021/04/05 01:03:45;;;;;;;;;;;20.70;36.30;;;;;;463049;257;1040;-44
2021/04/05 01:05:46;;;;;;;;;;;20.60;36.20;;;;;;463126;257;1170;-44
2021/04/05 01:07:47;;;;;;;;;;;20.60;36.30;;;;;;463011;257;1021;-45
2021/04/05 01:09:48;;;;;;;;;;;20.60;36.30;;;;;;462874;257;1124;-45
2021/04/05 01:11:50;;;;;;;;;;;20.70;36.30;;;;;;463090;255;2198;-45
2021/04/05 01:13:51;;;;;;;;;;;20.60;36.20;;;;;;462918;257;1192;-45
2021/04/05 01:15:52;;;;;;;;;;;20.70;36.20;;;;;;463227;257;1138;-44
2021/04/05 01:17:54;;;;;;;;;;;20.70;36.20;;;;;;462955;257;1069;-45
2021/04/05 01:19:55;;;;;;;;;;;20.70;36.20;;;;;;463011;257;1048;-45
2021/04/05 01:21:56;;;;;;;;;;;20.70;36.20;;;;;;462871;257;1223;-45
2021/04/05 01:23:57;;;;;;;;;;;20.70;36.20;;;;;;462979;257;1087;-45
2021/04/05 01:25:59;;;;;;;;;;;20.70;36.20;;;;;;462894;257;1224;-45
2021/04/05 01:28:00;;;;;;;;;;;20.70;36.20;;;;;;462918;257;1083;-44
2021/04/05 01:30:01;;;;;;;;;;;20.80;36.20;;;;;;462878;257;1069;-45
2021/04/05 01:32:02;;;;;;;;;;;20.80;36.20;;;;;;462958;257;2163;-45
2021/04/05 01:34:04;;;;;;;;;;;20.80;36.10;;;;;;462938;257;1100;-45
2021/04/05 01:36:05;;;;;;;;;;;20.80;36.20;;;;;;463141;257;1068;-45
2021/04/05 01:38:06;;;;;;;;;;;20.70;36.10;;;;;;462944;257;1056;-45
2021/04/05 01:40:08;;;;;;;;;;;20.70;36.20;;;;;;462943;257;1184;-45
2021/04/05 01:42:09;;;;;;;;;;;20.70;36.20;;;;;;462962;257;995;-45
2021/04/05 01:44:10;;;;;;;;;;;20.80;36.20;;;;;;462967;257;1047;-45
2021/04/05 01:46:11;;;;;;;;;;;20.80;36.20;;;;;;462868;257;1058;-45
2021/04/05 01:48:14;;;;;;;;;;;20.80;36.20;;;;;;463034;257;1001;-45
2021/04/05 01:50:15;;;;;;;;;;;20.80;36.20;;;;;;463001;257;1072;-45
2021/04/05 01:52:16;;;;;;;;;;;20.80;36.20;;;;;;462933;257;2387;-45
2021/04/05 01:54:17;;;;;;;;;;;20.80;36.10;;;;;;462945;257;1062;-45
2021/04/05 01:56:19;;;;;;;;;;;20.80;36.10;;;;;;462922;257;1602;-44
2021/04/05 01:58:20;;;;;;;;;;;20.90;36.20;;;;;;463163;257;1606;-45
2021/04/05 02:00:21;;;;;;;;;;;20.80;36.10;;;;;;463032;257;1085;-45
2021/04/05 02:02:22;;;;;;;;;;;20.80;36.10;;;;;;462948;257;1179;-45
2021/04/05 02:04:24;;;;;;;;;;;20.80;36.20;;;;;;463224;257;1065;-44
2021/04/05 02:06:25;;;;;;;;;;;20.80;36.20;;;;;;462886;257;1236;-44
2021/04/05 02:08:27;;;;;;;;;;;20.80;36.20;;;;;;463129;257;1100;-45
2021/04/05 02:10:28;;;;;;;;;;;20.80;36.10;;;;;;462915;257;1210;-44
2021/04/05 02:12:29;;;;;;;;;;;20.80;36.10;;;;;;462897;257;2203;-45
2021/04/05 02:14:30;;;;;;;;;;;20.80;36.20;;;;;;462861;257;1066;-44
2021/04/05 02:16:32;;;;;;;;;;;20.80;36.20;;;;;;462964;257;966;-45
2021/04/05 02:18:33;;;;;;;;;;;20.80;36.20;;;;;;462919;257;976;-45
2021/04/05 02:20:34;;;;;;;;;;;20.80;36.10;;;;;;462856;257;1062;-45
2021/04/05 02:22:36;;;;;;;;;;;20.90;36.10;;;;;;462862;257;1088;-45
2021/04/05 02:24:37;;;;;;;;;;;20.90;36.10;;;;;;462867;257;1214;-45
2021/04/05 02:26:38;;;;;;;;;;;20.80;36.20;;;;;;462841;257;1622;-45
2021/04/05 02:28:39;;;;;;;;;;;20.80;36.10;;;;;;462940;257;1123;-45
2021/04/05 02:30:41;;;;;;;;;;;20.80;36.10;;;;;;462888;257;1223;-44
2021/04/05 02:32:42;;;;;;;;;;;20.90;36.20;;;;;;462934;257;2198;-45
2021/04/05 02:34:43;;;;;;;;;;;20.90;36.20;;;;;;462929;257;1071;-45
2021/04/05 02:36:44;;;;;;;;;;;20.90;36.20;;;;;;462992;257;1112;-45
2021/04/05 02:38:46;;;;;;;;;;;20.90;36.20;;;;;;462927;257;1090;-45
2021/04/05 02:40:47;;;;;;;;;;;20.90;36.10;;;;;;462902;257;1346;-45
2021/04/05 02:42:48;;;;;;;;;;;20.90;36.10;;;;;;462907;257;1227;-45
2021/04/05 02:44:50;;;;;;;;;;;21.00;36.10;;;;;;462895;257;1029;-44
2021/04/05 02:46:51;;;;;;;;;;;20.90;36.00;;;;;;463011;257;1624;-45
2021/04/05 02:48:52;;;;;;;;;;;20.90;36.10;;;;;;462964;257;1193;-45
2021/04/05 02:50:54;;;;;;;;;;;20.90;36.10;;;;;;462946;257;1056;-45
2021/04/05 02:52:55;;;;;;;;;;;20.90;36.10;;;;;;463196;257;2152;-45
2021/04/05 02:54:56;;;;;;;;;;;20.90;36.10;;;;;;463017;257;1083;-45
2021/04/05 02:56:57;;;;;;;;;;;20.90;36.10;;;;;;462826;257;1083;-45
2021/04/05 02:58:59;;;;;;;;;;;20.90;36.10;;;;;;462880;257;1120;-44
2021/04/05 03:01:00;;;;;;;;;;;20.90;36.10;;;;;;462850;257;1091;-45
2021/04/05 03:03:01;;;;;;;;;;;20.90;36.10;;;;;;462882;257;1087;-45
2021/04/05 03:05:02;;;;;;;;;;;20.90;36.10;;;;;;463104;257;1054;-45
2021/04/05 03:07:04;;;;;;;;;;;21.00;36.10;;;;;;462859;257;1234;-44
2021/04/05 03:09:05;;;;;;;;;;;20.90;36.10;;;;;;463004;257;1098;-45
2021/04/05 03:11:06;;;;;;;;;;;20.90;36.10;;;;;;462943;257;1159;-44
2021/04/05 03:13:08;;;;;;;;;;;20.90;36.10;;;;;;463193;257;2159;-45
2021/04/05 03:15:09;;;;;;;;;;;20.90;36.10;;;;;;462908;257;1053;-44
2021/04/05 03:17:10;;;;;;;;;;;20.90;36.10;;;;;;462904;257;1092;-45
2021/04/05 03:19:11;;;;;;;;;;;20.90;36.10;;;;;;462950;257;1104;-45
2021/04/05 03:21:13;;;;;;;;;;;20.90;36.00;;;;;;463005;257;1186;-45
2021/04/05 03:23:14;;;;;;;;;;;21.00;36.00;;;;;;463105;257;1065;-45
2021/04/05 03:25:15;;;;;;;;;;;21.00;36.00;;;;;;462922;257;1117;-44
2021/04/05 03:27:17;;;;;;;;;;;21.00;36.10;;;;;;462877;257;1182;-44
2021/04/05 03:29:18;;;;;;;;;;;21.00;36.10;;;;;;463136;257;1077;-45
2021/04/05 03:31:19;;;;;;;;;;;21.00;36.00;;;;;;462944;257;1082;-45
2021/04/05 03:33:21;;;;;;;;;;;21.00;36.10;;;;;;462952;257;2151;-45
2021/04/05 03:35:22;;;;;;;;;;;21.00;36.10;;;;;;463202;257;1094;-45
2021/04/05 03:37:23;;;;;;;;;;;21.00;36.00;;;;;;462971;257;1536;-45
2021/04/05 03:39:25;;;;;;;;;;;21.00;36.00;;;;;;462844;257;1265;-45
2021/04/05 03:41:26;;;;;;;;;;;21.00;35.90;;;;;;462898;257;1284;-45
2021/04/05 03:43:27;;;;;;;;;;;21.00;35.90;;;;;;463193;257;1096;-45
2021/04/05 03:45:29;;;;;;;;;;;21.00;36.00;;;;;;462864;257;1320;-44
2021/04/05 03:47:30;;;;;;;;;;;21.10;36.00;;;;;;462979;257;1203;-45
2021/04/05 03:49:31;;;;;;;;;;;21.00;35.90;;;;;;463001;257;1070;-45
2021/04/05 03:51:33;;;;;;;;;;;21.00;36.00;;;;;;462966;257;1288;-45
2021/04/05 03:53:34;;;;;;;;;;;21.00;35.90;;;;;;463198;257;2156;-45
2021/04/05 03:55:36;;;;;;;;;;;21.10;35.90;;;;;;462840;257;1172;-45
2021/04/05 03:57:37;;;;;;;;;;;21.10;36.00;;;;;;462853;257;1219;-45
2021/04/05 03:59:38;;;;;;;;;;;21.10;35.90;;;;;;463103;257;1056;-45
2021/04/05 04:01:39;;;;;;;;;;;21.10;35.90;;;;;;463049;257;1071;-45
2021/04/05 04:03:44;;;;;;;;;;;21.10;35.90;;;;;;462918;257;1017;-45
2021/04/05 04:05:48;;;;;;;;;;;21.10;35.80;;;;;;462847;258;2056;-45
2021/04/05 04:07:49;;;;;;;;;;;21.10;35.90;;;;;;462636;258;2245;-44
2021/04/05 04:09:47;;;;;;;;;;;21.10;35.80;;;;;;462648;258;1424;-45
2021/04/05 04:11:50;;;;;;;;;;;21.10;35.80;;;;;;462854;257;1214;-45
2021/04/05 04:13:49;;;;;;;;;;;21.20;35.80;;;;;;462833;258;2418;-45
2021/04/05 04:15:51;;;;;;;;;;;21.10;35.90;;;;;;462896;257;1119;-45
2021/04/05 04:17:52;;;;;;;;;;;21.10;35.90;;;;;;462933;257;1150;-45
2021/04/05 04:19:53;;;;;;;;;;;21.10;35.90;;;;;;463020;257;1371;-44
2021/04/05 04:21:55;;;;;;;;;;;21.10;35.90;;;;;;462855;257;1356;-45
2021/04/05 04:23:56;;;;;;;;;;;21.10;35.90;;;;;;462960;257;1121;-45
2021/04/05 04:25:57;;;;;;;;;;;21.10;35.90;;;;;;462925;257;1383;-45
2021/04/05 04:27:58;;;;;;;;;;;21.10;35.90;;;;;;462962;257;1211;-45
2021/04/05 04:30:00;;;;;;;;;;;21.10;35.90;;;;;;463340;257;1075;-45
2021/04/05 04:32:01;;;;;;;;;;;21.10;35.90;;;;;;462907;257;1117;-45
2021/04/05 04:34:02;;;;;;;;;;;21.10;35.90;;;;;;462954;257;2159;-45
2021/04/05 04:36:04;;;;;;;;;;;21.10;35.90;;;;;;463006;257;1117;-45
2021/04/05 04:38:05;;;;;;;;;;;21.10;35.90;;;;;;463003;257;1173;-45
2021/04/05 04:40:06;;;;;;;;;;;21.10;35.90;;;;;;462953;257;1027;-45
2021/04/05 04:42:07;;;;;;;;;;;21.10;35.90;;;;;;462932;257;1323;-45
2021/04/05 04:44:09;;;;;;;;;;;21.10;35.90;;;;;;463084;257;1631;-45
2021/04/05 04:46:10;;;;;;;;;;;21.10;35.90;;;;;;462829;257;1096;-45
2021/04/05 04:48:11;;;;;;;;;;;21.10;35.90;;;;;;462912;257;1129;-44
2021/04/05 04:50:13;;;;;;;;;;;21.10;35.90;;;;;;463017;257;1081;-45
2021/04/05 04:52:14;;;;;;;;;;;21.10;35.90;;;;;;462949;257;1071;-45
2021/04/05 04:54:15;;;;;;;;;;;21.10;35.90;;;;;;462950;257;2155;-45
2021/04/05 04:56:16;;;;;;;;;;;21.10;35.90;;;;;;462908;257;1047;-45
2021/04/05 04:58:18;;;;;;;;;;;21.10;35.90;;;;;;462996;257;1200;-45
2021/04/05 05:00:19;;;;;;;;;;;21.10;35.90;;;;;;462971;257;1080;-45
2021/04/05 05:02:20;;;;;;;;;;;21.10;35.90;;;;;;462936;257;1079;-45
2021/04/05 05:04:22;;;;;;;;;;;21.10;35.90;;;;;;463204;257;1066;-44
2021/04/05 05:06:23;;;;;;;;;;;21.20;35.90;;;;;;462938;257;1057;-45
2021/04/05 05:08:24;;;;;;;;;;;21.10;35.90;;;;;;463150;257;971;-45
2021/04/05 05:10:25;;;;;;;;;;;21.20;35.90;;;;;;462915;257;1123;-45
2021/04/05 05:12:27;;;;;;;;;;;21.20;35.90;;;;;;462953;257;1198;-45
2021/04/05 05:14:28;;;;;;;;;;;21.20;35.90;;;;;;462950;257;2195;-45
2021/04/05 05:16:29;;;;;;;;;;;21.20;35.90;;;;;;462913;257;1200;-45
2021/04/05 05:18:30;;;;;;;;;;;21.20;35.90;;;;;;463120;257;1508;-44
2021/04/05 05:20:32;;;;;;;;;;;21.20;35.90;;;;;;462859;257;1115;-45
2021/04/05 05:22:33;;;;;;;;;;;21.10;35.90;;;;;;462951;257;1159;-44
2021/04/05 05:24:34;;;;;;;;;;;21.20;35.90;;;;;;462956;257;1050;-45
2021/04/05 05:26:36;;;;;;;;;;;21.20;35.90;;;;;;463242;257;1211;-45
2021/04/05 05:28:37;;;;;;;;;;;21.20;35.90;;;;;;462944;257;1224;-45
2021/04/05 05:30:38;;;;;;;;;;;21.20;35.90;;;;;;463114;257;1351;-45
2021/04/05 05:32:40;;;;;;;;;;;21.20;35.80;;;;;;463089;257;1107;-45
2021/04/05 05:34:41;;;;;;;;;;;21.20;35.90;;;;;;463051;257;2156;-45
2021/04/05 05:36:42;;;;;;;;;;;21.20;35.80;;;;;;462937;257;1076;-44
2021/04/05 05:38:43;;;;;;;;;;;21.00;36.00;;;;;;463253;257;1061;-44
2021/04/05 05:40:44;;;;;;;;;;;20.60;36.90;;;;;;463047;257;1105;-45
2021/04/05 05:42:46;;;;;;;;;;;20.10;37.70;;;;;;462979;257;1351;-44
2021/04/05 05:44:47;;;;;;;;;;;19.80;38.50;;;;;;463178;257;1098;-44
2021/04/05 05:46:48;;;;;;;;;;;19.50;39.00;;;;;;462977;257;978;-45
2021/04/05 05:48:50;;;;;;;;;;;19.30;39.40;;;;;;463287;257;1090;-44
2021/04/05 05:50:51;;;;;;;;;;;19.20;39.70;;;;;;462900;257;1097;-44
2021/04/05 05:52:52;;;;;;;;;;;19.10;39.80;;;;;;462958;257;1036;-44
2021/04/05 05:54:53;;;;;;;;;;;19.00;40.00;;;;;;462943;257;2198;-44
2021/04/05 05:56:55;;;;;;;;;;;19.00;40.20;;;;;;462845;257;1119;-44
2021/04/05 05:58:56;;;;;;;;;;;18.90;40.30;;;;;;462901;257;1219;-44
2021/04/05 06:00:57;;;;;;;;;;;18.80;40.30;;;;;;462957;257;1103;-45
2021/04/05 06:02:59;;;;;;;;;;;18.90;40.40;;;;;;462746;257;1082;-45
2021/04/05 06:05:00;;;;;;;;;;;18.90;40.40;;;;;;462838;257;1063;-44
2021/04/05 06:07:01;;;;;;;;;;;18.80;40.40;;;;;;462896;257;1219;-44
2021/04/05 06:09:02;;;;;;;;;;;18.80;40.40;;;;;;462756;257;1185;-44
2021/04/05 06:11:04;;;;;;;;;;;18.80;40.40;;;;;;462952;257;1164;-44
2021/04/05 06:13:05;;;;;;;;;;;18.70;40.40;;;;;;462986;257;1195;-44
2021/04/05 06:15:06;;;;;;;;;;;18.80;40.50;;;;;;462968;257;2195;-44
2021/04/05 06:17:08;;;;;;;;;;;18.70;40.40;;;;;;460908;257;1068;-44
2021/04/05 06:19:09;;;;;;;;;;;18.70;40.50;;;;;;470011;253;1163;-44
2021/04/05 06:21:10;;;;;;;;;;;18.70;40.40;;;;;;456211;260;1076;-44
2021/04/05 06:23:12;;;;;;;;;;;18.70;40.50;;;;;;470882;253;1132;-45
2021/04/05 06:25:13;;;;;;;;;;;18.70;40.50;;;;;;465802;255;1043;-44
2021/04/05 06:27:14;;;;;;;;;;;18.70;40.60;;;;;;463172;256;1090;-44
2021/04/05 06:29:15;;;;;;;;;;;18.60;40.50;;;;;;457172;258;1360;-44
2021/04/05 06:31:17;;;;;;;;;;;18.60;40.50;;;;;;462772;257;1097;-44
2021/04/05 06:33:18;;;;;;;;;;;18.70;40.40;;;;;;463039;257;1107;-45
2021/04/05 06:35:19;;;;;;;;;;;18.70;40.40;;;;;;462970;257;2120;-44
2021/04/05 06:37:21;;;;;;;;;;;18.70;40.30;;;;;;462929;257;1059;-44
2021/04/05 06:39:22;;;;;;;;;;;18.70;40.30;;;;;;462942;257;1234;-44
2021/04/05 06:41:23;;;;;;;;;;;18.70;40.20;;;;;;463095;257;1111;-44
2021/04/05 06:43:24;;;;;;;;;;;18.80;40.20;;;;;;462829;257;1188;-44
2021/04/05 06:45:26;;;;;;;;;;;18.80;40.10;;;;;;462883;257;1188;-44
2021/04/05 06:47:27;;;;;;;;;;;18.90;40.00;;;;;;462838;257;1059;-44
2021/04/05 06:49:28;;;;;;;;;;;18.90;39.80;;;;;;462920;257;1069;-44
2021/04/05 06:51:30;;;;;;;;;;;18.90;39.80;;;;;;462795;257;1190;-44
2021/04/05 06:53:31;;;;;;;;;;;18.90;39.70;;;;;;462910;257;2207;-45
2021/04/05 06:55:32;;;;;;;;;;;18.90;39.70;;;;;;463021;257;1066;-44
2021/04/05 06:57:34;;;;;;;;;;;18.90;39.80;;;;;;462973;257;1110;-44
2021/04/05 06:59:35;;;;;;;;;;;18.80;39.80;;;;;;462768;257;1245;-44
2021/04/05 07:01:37;;;;;;;;;;;18.80;40.00;;;;;;462794;257;1224;-44
2021/04/05 07:03:38;;;;;;;;;;;18.70;40.10;;;;;;462867;257;1205;-44
2021/04/05 07:05:39;;;;;;;;;;;18.70;40.20;;;;;;463153;257;1061;-44
2021/04/05 07:07:40;;;;;;;;;;;18.60;40.40;;;;;;462923;257;1129;-44
2021/04/05 07:09:42;;;;;;;;;;;18.50;40.50;;;;;;462900;257;1107;-44
2021/04/05 07:11:43;;;;;;;;;;;18.50;40.60;;;;;;462861;257;1077;-45
2021/04/05 07:13:44;;;;;;;;;;;18.50;40.60;;;;;;462973;257;2183;-44
2021/04/05 07:15:46;;;;;;;;;;;18.40;40.60;;;;;;463096;257;1100;-44
2021/04/05 07:17:47;;;;;;;;;;;18.40;40.60;;;;;;462844;257;1470;-44
2021/04/05 07:19:48;;;;;;;;;;;18.40;40.70;;;;;;462964;257;1078;-44
2021/04/05 07:21:49;;;;;;;;;;;18.40;40.60;;;;;;462780;257;1049;-44
2021/04/05 07:23:51;;;;;;;;;;;18.30;40.60;;;;;;462870;257;1073;-45
2021/04/05 07:25:52;;;;;;;;;;;18.30;40.80;;;;;;462944;257;1072;-44
2021/04/05 07:27:53;;;;;;;;;;;18.30;40.80;;;;;;462805;257;1084;-44
2021/04/05 07:29:56;;;;;;;;;;;18.30;40.80;;;;;;462815;257;1172;-44
2021/04/05 07:31:56;;;;;;;;;;;18.20;40.80;;;;;;462758;257;2099;-44
2021/04/05 07:33:57;;;;;;;;;;;18.20;40.80;;;;;;462776;257;2222;-44
2021/04/05 07:35:59;;;;;;;;;;;18.20;40.90;;;;;;463045;257;1129;-44
2021/04/05 07:38:00;;;;;;;;;;;18.20;40.80;;;;;;462850;257;1119;-44
2021/04/05 07:40:01;;;;;;;;;;;18.20;40.90;;;;;;462798;257;1147;-44
2021/04/05 07:42:02;;;;;;;;;;;18.20;40.90;;;;;;463142;257;1070;-45
2021/04/05 07:44:04;;;;;;;;;;;18.10;40.90;;;;;;462899;257;1369;-44
2021/04/05 07:46:05;;;;;;;;;;;18.10;40.90;;;;;;462901;257;1095;-45
2021/04/05 07:48:06;;;;;;;;;;;18.10;40.90;;;;;;463116;257;1084;-44
2021/04/05 07:50:08;;;;;;;;;;;18.10;40.90;;;;;;462901;257;1081;-44
2021/04/05 07:52:09;;;;;;;;;;;18.10;41.00;;;;;;462884;257;1085;-44
2021/04/05 07:54:10;;;;;;;;;;;18.10;41.00;;;;;;462687;257;2198;-44
2021/04/05 07:56:11;;;;;;;;;;;18.10;41.00;;;;;;462787;257;1191;-44
2021/04/05 07:58:13;;;;;;;;;;;18.10;41.00;;;;;;463278;257;1060;-44
2021/04/05 08:00:14;;;;;;;;;;;18.10;41.00;;;;;;462839;257;1103;-44
2021/04/05 08:02:16;;;;;;;;;;;18.10;40.90;;;;;;462952;257;1087;-45
2021/04/05 08:04:17;;;;;;;;;;;18.00;41.00;;;;;;462792;257;1101;-44
2021/04/05 08:06:18;;;;;;;;;;;18.00;41.00;;;;;;462798;257;1310;-45
2021/04/05 08:08:20;;;;;;;;;;;18.00;41.00;;;;;;462791;257;1073;-44
2021/04/05 08:10:21;;;;;;;;;;;18.00;41.00;;;;;;463049;257;1097;-44
2021/04/05 08:12:22;;;;;;;;;;;18.00;41.00;;;;;;462837;257;1190;-44
2021/04/05 08:14:23;;;;;;;;;;;18.00;41.00;;;;;;463043;257;2253;-44
2021/04/05 08:16:25;;;;;;;;;;;18.00;40.90;;;;;;463215;257;1243;-44
2021/04/05 08:18:26;;;;;;;;;;;18.00;40.90;;;;;;463106;257;1249;-44
2021/04/05 08:20:27;;;;;;;;;;;18.00;40.90;;;;;;462893;257;1567;-44
2021/04/05 08:22:28;;;;;;;;;;;18.00;40.90;;;;;;462816;257;1219;-44
2021/04/05 08:24:30;;;;;;;;;;;18.00;41.00;;;;;;462933;257;1253;-44
2021/04/05 08:26:31;;;;;;;;;;;18.00;41.00;;;;;;462852;257;1133;-44
2021/04/05 08:28:32;;;;;;;;;;;18.00;41.00;;;;;;463000;257;1091;-44
2021/04/05 08:30:34;;;;;;;;;;;18.00;40.90;;;;;;462824;257;1177;-44
2021/04/05 08:32:35;;;;;;;;;;;18.00;40.90;;;;;;462854;257;1111;-44
2021/04/05 08:34:36;;;;;;;;;;;18.00;40.90;;;;;;463173;257;2144;-44
2021/04/05 08:36:37;;;;;;;;;;;17.90;40.90;;;;;;462914;257;1102;-44
2021/04/05 08:38:39;;;;;;;;;;;17.90;40.90;;;;;;462940;257;1116;-44
2021/04/05 08:40:40;;;;;;;;;;;18.00;40.90;;;;;;462743;257;1098;-44
2021/04/05 08:42:41;;;;;;;;;;;18.00;40.80;;;;;;462789;257;1064;-44
2021/04/05 08:44:43;;;;;;;;;;;17.90;40.80;;;;;;462803;257;1233;-44
2021/04/05 08:46:44;;;;;;;;;;;17.90;40.80;;;;;;463038;257;1178;-44
2021/04/05 08:48:45;;;;;;;;;;;18.00;40.80;;;;;;462920;257;1050;-44
2021/04/05 08:50:47;;;;;;;;;;;17.90;40.80;;;;;;463113;257;1210;-44
2021/04/05 08:52:48;;;;;;;;;;;17.80;40.90;;;;;;462849;257;1041;-44
2021/04/05 08:54:49;;;;;;;;;;;17.90;40.90;;;;;;462953;257;2207;-44
2021/04/05 08:56:51;;;;;;;;;;;17.90;40.90;;;;;;462858;257;1182;-44
2021/04/05 08:58:52;;;;;;;;;;;17.80;40.90;;;;;;462820;257;1100;-44
2021/04/05 09:00:53;;;;;;;;;;;17.80;40.80;;;;;;462767;257;1178;-44
2021/04/05 09:02:55;;;;;;;;;;;17.90;40.80;;;;;;462764;257;1084;-45
2021/04/05 09:04:56;;;;;;;;;;;17.90;40.70;;;;;;462852;257;1090;-44
2021/04/05 09:06:57;;;;;;;;;;;18.10;40.50;;;;;;462822;257;1113;-44
2021/04/05 09:08:59;;;;;;;;;;;18.40;39.80;;;;;;463057;257;1084;-44
2021/04/05 09:11:00;;;;;;;;;;;18.70;39.00;;;;;;462767;257;1127;-44
2021/04/05 09:13:02;;;;;;;;;;;18.90;38.50;;;;;;462847;257;1568;-44
2021/04/05 09:15:04;;;;;;;;;;;19.10;38.20;;;;;;462799;257;2219;-45
2021/04/05 09:17:05;;;;;;;;;;;19.20;37.90;;;;;;462794;257;1198;-44
2021/04/05 09:19:07;;;;;;;;;;;19.30;37.70;;;;;;463062;257;1268;-44
2021/04/05 09:21:08;;;;;;;;;;;19.40;37.60;;;;;;462875;257;1154;-44
2021/04/05 09:23:10;;;;;;;;;;;19.50;37.40;;;;;;462752;257;1185;-44
2021/04/05 09:25:11;;;;;;;;;;;19.50;37.20;;;;;;463047;257;1089;-45
2021/04/05 09:27:12;;;;;;;;;;;19.60;37.20;;;;;;462754;257;1263;-45
2021/04/05 09:29:13;;;;;;;;;;;19.70;37.10;;;;;;462912;257;1363;-44
2021/04/05 09:31:15;;;;;;;;;;;19.70;37.00;;;;;;462849;257;1213;-45
2021/04/05 09:33:16;;;;;;;;;;;19.80;36.90;;;;;;463038;257;1081;-44
2021/04/05 09:35:17;;;;;;;;;;;19.80;36.90;;;;;;462789;257;2159;-45
2021/04/05 09:37:19;;;;;;;;;;;19.80;36.80;;;;;;463061;257;1099;-45
2021/04/05 09:39:21;;;;;;;;;;;19.90;36.80;;;;;;462899;257;1063;-45
2021/04/05 09:41:21;;;;;;;;;;;19.90;36.70;;;;;;462814;258;1831;-45
2021/04/05 09:43:22;;;;;;;;;;;19.90;36.60;;;;;;462868;257;1092;-45
2021/04/05 09:45:24;;;;;;;;;;;20.00;36.50;;;;;;462791;257;1268;-45
2021/04/05 09:47:25;;;;;;;;;;;20.00;36.50;;;;;;462823;257;1245;-44
2021/04/05 09:49:26;;;;;;;;;;;20.00;36.40;;;;;;462729;257;1120;-44
2021/04/05 09:51:28;;;;;;;;;;;20.00;36.30;;;;;;462792;257;1074;-45
2021/04/05 09:53:29;;;;;;;;;;;20.10;36.30;;;;;;463104;257;1083;-45
2021/04/05 09:55:31;;;;;;;;;;;20.10;36.20;;;;;;462821;257;2211;-44
2021/04/05 09:57:32;;;;;;;;;;;20.10;36.10;;;;;;462909;257;1068;-44
2021/04/05 09:59:33;;;;;;;;;;;20.10;36.00;;;;;;462775;257;1108;-44
2021/04/05 10:01:35;;;;;;;;;;;20.20;36.10;;;;;;462729;257;1185;-44
2021/04/05 10:03:36;;;;;;;;;;;20.20;36.00;;;;;;462835;257;1098;-45
2021/04/05 10:05:37;;;;;;;;;;;20.20;36.00;;;;;;462840;257;1381;-45
2021/04/05 10:07:39;;;;;;;;;;;20.20;35.90;;;;;;462906;257;1091;-45
2021/04/05 10:09:40;;;;;;;;;;;20.30;35.90;;;;;;462836;257;1124;-45
2021/04/05 10:11:41;;;;;;;;;;;20.30;35.90;;;;;;462892;257;1148;-44
2021/04/05 10:13:42;;;;;;;;;;;20.30;35.90;;;;;;462837;257;1042;-45
2021/04/05 10:15:44;;;;;;;;;;;20.30;35.80;;;;;;462829;257;2215;-45
2021/04/05 10:17:45;;;;;;;;;;;20.30;35.80;;;;;;462859;257;1144;-44
2021/04/05 10:19:46;;;;;;;;;;;20.30;35.80;;;;;;462810;257;1067;-44
2021/04/05 10:21:48;;;;;;;;;;;20.40;35.80;;;;;;462975;257;1267;-44
2021/04/05 10:23:49;;;;;;;;;;;20.40;35.80;;;;;;462837;257;1121;-45
2021/04/05 10:25:50;;;;;;;;;;;20.40;35.70;;;;;;462865;257;1094;-44
2021/04/05 10:27:51;;;;;;;;;;;20.40;35.70;;;;;;462686;257;1158;-44
2021/04/05 10:29:53;;;;;;;;;;;20.40;35.60;;;;;;462788;257;1097;-45
2021/04/05 10:31:54;;;;;;;;;;;20.40;35.60;;;;;;462889;257;1186;-44
2021/04/05 10:33:55;;;;;;;;;;;20.50;35.60;;;;;;462756;257;1124;-45
2021/04/05 10:35:57;;;;;;;;;;;20.50;35.60;;;;;;462647;257;2206;-44
2021/04/05 10:37:58;;;;;;;;;;;20.50;35.50;;;;;;462844;257;1157;-45
2021/04/05 10:39:59;;;;;;;;;;;20.50;35.50;;;;;;462837;257;1144;-45
2021/04/05 10:42:02;;;;;;;;;;;20.50;35.40;;;;;;462945;257;1063;-44
2021/04/05 10:44:02;;;;;;;;;;;20.50;35.50;;;;;;462719;258;2217;-45
2021/04/05 10:46:05;;;;;;;;;;;20.60;35.50;;;;;;462901;257;1127;-45
2021/04/05 10:48:04;;;;;;;;;;;20.60;35.40;;;;;;462735;257;1925;-44
2021/04/05 10:50:06;;;;;;;;;;;20.60;35.40;;;;;;462915;257;1086;-44
2021/04/05 10:52:07;;;;;;;;;;;20.60;35.40;;;;;;462819;257;1529;-45
2021/04/05 10:54:08;;;;;;;;;;;20.60;35.40;;;;;;463023;257;1099;-45
2021/04/05 10:56:09;;;;;;;;;;;20.60;35.30;;;;;;462775;257;2156;-45
2021/04/05 10:58:11;;;;;;;;;;;20.60;35.40;;;;;;462979;257;1069;-44
2021/04/05 11:00:12;;;;;;;;;;;20.60;35.30;;;;;;462855;257;1034;-45
2021/04/05 11:02:13;;;;;;;;;;;20.60;35.30;;;;;;462886;257;1233;-44
2021/04/05 11:04:14;;;;;;;;;;;20.60;35.30;;;;;;463037;257;1286;-45
2021/04/05 11:06:16;;;;;;;;;;;20.70;35.20;;;;;;462946;257;1107;-45
2021/04/05 11:08:17;;;;;;;;;;;20.70;35.20;;;;;;462857;257;1093;-44
2021/04/05 11:10:18;;;;;;;;;;;20.70;35.20;;;;;;462873;257;1063;-45
2021/04/05 11:12:20;;;;;;;;;;;20.70;35.20;;;;;;462851;257;1171;-45
2021/04/05 11:14:21;;;;;;;;;;;20.70;35.20;;;;;;462898;257;1081;-45
2021/04/05 11:16:22;;;;;;;;;;;20.70;35.20;;;;;;462819;257;2207;-45
2021/04/05 11:18:25;;;;;;;;;;;20.70;35.10;;;;;;462990;257;1070;-44
2021/04/05 11:20:25;;;;;;;;;;;20.70;35.10;;;;;;462846;257;1480;-45
2021/04/05 11:22:26;;;;;;;;;;;20.70;35.10;;;;;;463022;257;1265;-45
2021/04/05 11:24:27;;;;;;;;;;;20.70;35.10;;;;;;462913;257;1213;-44
2021/04/05 11:26:32;;;;;;;;;;;20.80;35.10;;;;;;462948;257;1189;-45
2021/04/05 11:28:30;;;;;;;;;;;20.80;35.10;;;;;;462638;258;1387;-44
2021/04/05 11:30:31;;;;;;;;;;;20.80;35.10;;;;;;462897;257;1429;-44
2021/04/05 11:32:32;;;;;;;;;;;20.80;35.00;;;;;;462849;257;1390;-45
2021/04/05 11:34:37;;;;;;;;;;;20.80;35.00;;;;;;462953;257;1042;-45
2021/04/05 11:36:35;;;;;;;;;;;20.80;35.10;;;;;;462766;257;2567;-44
2021/04/05 11:38:37;;;;;;;;;;;20.80;35.10;;;;;;462663;257;1173;-45
2021/04/05 11:40:38;;;;;;;;;;;20.80;35.00;;;;;;462746;257;1088;-45
2021/04/05 11:42:42;;;;;;;;;;;20.80;35.00;;;;;;462717;257;1151;-45
2021/04/05 11:44:41;;;;;;;;;;;20.80;35.00;;;;;;463021;257;1418;-45
2021/04/05 11:46:44;;;;;;;;;;;20.80;35.00;;;;;;462949;257;1343;-45
2021/04/05 11:48:43;;;;;;;;;;;20.80;35.00;;;;;;462767;257;2351;-44
2021/04/05 11:50:44;;;;;;;;;;;20.80;35.00;;;;;;462881;257;1110;-45
2021/04/05 11:52:46;;;;;;;;;;;20.90;35.00;;;;;;463040;257;1195;-45
2021/04/05 11:54:47;;;;;;;;;;;20.90;35.00;;;;;;462907;257;1110;-45
2021/04/05 11:56:48;;;;;;;;;;;20.90;34.90;;;;;;462918;257;2144;-44